San Diego, California
Traffic Map
Current Weather Conditions
San Diego, California
Few Clouds
Few Clouds
61°
Feels Like: 61°
Wind Chill: 61° Ceiling: Unl
Heat Index: 61° Visibility: 10mi
Dew Point: 52° Wind: 5mph
Humidity: 72% Direction: 320° (NW)
Pressure: 30.24in Gusts: 0mph
Raw Report DataKSAN 090151Z 32004KT 10SM FEW018 FEW250 16/11 A3024 RMK AO2 SLP240 T01610111
Traffic Incident Summary
Active as of:
Severity:
Category:
InformationThere was an issue retrieving the traffic information for this location. Please try a different location or try again shortly.
Advertisements
Track Severe Weather on mobile